Time;durP1;ratioP1;P1;durP2;ratioP2;P2;SDS_P1;SDS_P2;PMS_P1;PMS_P2;Temp;Humidity;BMP_temperature;BMP_pressure;BME280_temperature;BME280_humidity;BME280_pressure;Samples;Min_cycle;Max_cycle;Signal;HPM_P1;HPM_P2
2023/01/13 00:01:08;;;;;;;9.45;3.00;;;;;;;8.98;100.00;99179.72;4977838;28;20026;-87
2023/01/13 00:03:34;;;;;;;5.18;2.00;;;;;;;8.95;100.00;99169.47;4978308;28;20038;-87
2023/01/13 00:06:03;;;;;;;4.32;2.35;;;;;;;9.00;100.00;99177.69;4993740;28;20034;-85
2023/01/13 00:08:29;;;;;;;5.15;2.90;;;;;;;9.01;100.00;99168.69;4993756;28;20039;-86
2023/01/13 00:10:54;;;;;;;8.87;2.53;;;;;;;9.02;100.00;99170.34;4976941;28;20015;-86
2023/01/13 00:13:25;;;;;;;6.10;3.30;;;;;;;8.99;100.00;99173.38;4978039;28;20392;-88
2023/01/13 00:16:06;;;;;;;8.70;3.17;;;;;;;8.98;100.00;99169.88;4977469;28;20750;-87
2023/01/13 00:18:37;;;;;;;11.32;2.72;;;;;;;8.95;100.00;99154.31;4991077;28;20030;-86
2023/01/13 00:21:14;;;;;;;4.43;2.30;;;;;;;8.96;100.00;99161.28;4994082;28;20684;-87
2023/01/13 00:23:41;;;;;;;4.63;2.45;;;;;;;8.98;100.00;99167.22;4989589;28;20126;-87
2023/01/13 00:26:09;;;;;;;3.92;1.95;;;;;;;8.98;100.00;99169.06;4977653;28;20157;-85
2023/01/13 00:28:36;;;;;;;5.57;2.28;;;;;;;9.00;100.00;99167.06;4972393;28;20038;-85
2023/01/13 00:31:15;;;;;;;6.50;2.83;;;;;;;9.00;100.00;99157.22;4972760;28;20049;-85
2023/01/13 00:33:41;;;;;;;8.32;2.10;;;;;;;8.90;100.00;99145.22;4964766;28;20089;-87
2023/01/13 00:36:10;;;;;;;3.92;2.28;;;;;;;8.97;100.00;99168.25;4969372;28;20682;-87
2023/01/13 00:38:37;;;;;;;7.63;3.55;;;;;;;9.01;100.00;99147.38;4978771;28;20023;-86
2023/01/13 00:41:25;;;;;;;7.00;2.45;;;;;;;8.94;100.00;99141.19;4976419;28;20691;-85
2023/01/13 00:43:50;;;;;;;6.80;2.80;;;;;;;8.87;100.00;99154.44;4993192;28;20046;-86
2023/01/13 00:46:18;;;;;;;6.37;2.53;;;;;;;8.91;100.00;99162.88;4977695;28;20444;-87
2023/01/13 00:48:44;;;;;;;4.78;2.97;;;;;;;8.90;100.00;99166.53;4976997;28;20030;-84
2023/01/13 00:51:16;;;;;;;8.90;2.30;;;;;;;8.86;100.00;99177.56;4973765;28;20503;-86
2023/01/13 00:53:47;;;;;;;6.60;1.90;;;;;;;8.79;100.00;99197.97;4975042;28;20037;-85
2023/01/13 00:56:15;;;;;;;4.93;2.60;;;;;;;8.70;100.00;99207.06;4976684;28;20026;-86
2023/01/13 00:58:45;;;;;;;8.70;2.88;;;;;;;8.62;100.00;99200.03;4974906;28;20034;-86
2023/01/13 01:01:14;;;;;;;4.07;1.65;;;;;;;8.56;100.00;99208.75;4978784;28;20603;-86
2023/01/13 01:03:39;;;;;;;7.88;2.20;;;;;;;8.43;100.00;99203.28;4976611;28;20073;-85
2023/01/13 01:06:12;;;;;;;7.60;2.27;;;;;;;8.32;100.00;99211.72;4992697;28;20060;-86
2023/01/13 01:08:37;;;;;;;8.90;2.38;;;;;;;8.27;100.00;99208.78;4973940;28;20286;-87
2023/01/13 01:11:04;;;;;;;5.10;1.47;;;;;;;8.16;100.00;99226.03;4974557;28;20030;-86
2023/01/13 01:13:31;;;;;;;8.63;1.85;;;;;;;8.08;100.00;99218.13;4992263;28;20041;-86
2023/01/13 01:15:56;;;;;;;8.15;2.10;;;;;;;8.08;100.00;99228.75;4992566;28;20030;-87
2023/01/13 01:18:22;;;;;;;10.20;1.77;;;;;;;8.00;100.00;99224.38;4973133;28;20454;-86
2023/01/13 01:20:47;;;;;;;15.50;1.93;;;;;;;7.98;100.00;99229.88;4991570;28;20816;-86
2023/01/13 01:23:13;;;;;;;9.07;2.13;;;;;;;7.94;100.00;99223.28;4993203;28;20030;-86
2023/01/13 01:25:41;;;;;;;10.05;1.42;;;;;;;7.96;100.00;99229.25;4992481;28;20121;-84
2023/01/13 01:28:09;;;;;;;9.98;2.08;;;;;;;7.92;100.00;99225.28;4993293;28;20034;-86
2023/01/13 01:30:37;;;;;;;7.68;1.80;;;;;;;7.89;100.00;99223.00;4975494;28;20483;-86
2023/01/13 01:33:04;;;;;;;8.02;1.85;;;;;;;7.77;100.00;99229.75;4992629;28;20038;-86
2023/01/13 01:35:29;;;;;;;10.13;2.33;;;;;;;7.72;100.00;99226.81;4992287;28;20034;-86
2023/01/13 01:37:54;;;;;;;7.37;1.90;;;;;;;7.73;100.00;99233.78;4976594;28;20034;-86
2023/01/13 01:40:20;;;;;;;9.87;2.33;;;;;;;7.66;100.00;99222.25;4991087;28;20049;-85
2023/01/13 01:45:30;;;;;;;8.20;2.55;;;;;;;7.50;100.00;99223.22;4991993;28;20038;-86
2023/01/13 01:48:05;;;;;;;8.82;2.40;;;;;;;7.50;100.00;99218.72;4992175;28;20399;-87
2023/01/13 01:50:32;;;;;;;6.40;1.50;;;;;;;7.46;100.00;99195.34;4975629;28;20121;-84
2023/01/13 01:53:01;;;;;;;;;;;;;;;7.43;100.00;99195.72;4973192;28;20031;-87
2023/01/13 01:55:31;;;;;;;12.05;2.75;;;;;;;7.37;100.00;99194.59;4975132;28;20282;-86
2023/01/13 01:57:59;;;;;;;14.45;3.83;;;;;;;7.34;100.00;99181.69;4992250;28;20030;-87
2023/01/13 02:00:26;;;;;;;8.60;2.08;;;;;;;7.31;100.00;99166.13;4991437;28;20018;-86
2023/01/13 02:02:52;;;;;;;11.98;2.70;;;;;;;7.24;100.00;99171.34;4975636;28;20117;-87
2023/01/13 02:05:18;;;;;;;8.68;2.35;;;;;;;7.24;100.00;99189.09;4971931;28;20122;-86
2023/01/13 02:07:46;;;;;;;;;;;;;;;7.20;100.00;99207.19;4990318;28;20534;-85
2023/01/13 02:10:13;;;;;;;12.65;1.88;;;;;;;7.21;100.00;99213.31;4991408;28;19910;-86
2023/01/13 02:12:41;;;;;;;7.80;2.00;;;;;;;7.19;100.00;99232.09;4991106;28;20075;-85
2023/01/13 02:15:12;;;;;;;28.88;3.90;;;;;;;7.04;100.00;99229.38;4991102;28;20030;-86
2023/01/13 02:18:15;;;;;;;18.58;4.80;;;;;;;6.59;100.00;99208.94;4974967;28;20058;-86
2023/01/13 02:21:17;;;;;;;17.60;4.05;;;;;;;6.34;100.00;99191.34;4913523;29;20036;-85
2023/01/13 02:27:12;;;;;;;20.88;3.80;;;;;;;6.13;100.00;99267.91;4915993;29;20045;-88
2023/01/13 02:33:09;;;;;;;29.17;3.72;;;;;;;6.03;100.00;99288.50;4914799;29;20146;-87
2023/01/13 02:35:49;;;;;;;20.48;4.28;;;;;;;5.83;100.00;99285.34;4899085;29;20039;-86
2023/01/13 02:38:16;;;;;;;19.83;3.00;;;;;;;5.86;100.00;99301.72;4915054;29;20106;-86
2023/01/13 02:40:57;;;;;;;18.95;3.88;;;;;;;5.73;100.00;99293.47;4914697;29;20556;-86
2023/01/13 02:46:50;;;;;;;23.15;3.90;;;;;;;5.79;100.00;99314.00;4914374;29;20036;-85
2023/01/13 02:49:27;;;;;;;20.98;3.10;;;;;;;5.69;100.00;99297.47;4921243;29;20611;-86
2023/01/13 02:51:57;;;;;;;19.58;3.58;;;;;;;5.62;100.00;99301.72;4959940;28;20070;-86
2023/01/13 02:54:27;;;;;;;14.13;2.25;;;;;;;5.57;100.00;99288.16;4969410;28;20953;-84
2023/01/13 02:56:54;;;;;;;16.05;3.13;;;;;;;5.49;100.00;99291.66;4990384;28;20030;-86
2023/01/13 02:59:24;;;;;;;20.30;3.83;;;;;;;5.43;100.00;99289.66;4972046;28;20628;-86
2023/01/13 03:01:53;;;;;;;14.52;2.65;;;;;;;5.45;100.00;99295.63;4973533;28;20047;-86
2023/01/13 03:04:57;;;;;;;14.38;2.97;;;;;;;5.47;100.00;99294.47;4983617;28;20039;-85
2023/01/13 03:07:41;;;;;;;18.13;2.53;;;;;;;5.47;100.00;99299.75;4975045;28;20037;-84
2023/01/13 03:12:36;;;;;;;15.63;3.45;;;;;;;5.46;100.00;99310.53;4964417;28;20051;-74
2023/01/13 03:15:28;;;;;;;19.52;3.00;;;;;;;5.53;100.00;99302.75;4961633;28;20030;-74
2023/01/13 03:18:16;;;;;;;17.55;2.65;;;;;;;5.56;100.00;99299.78;4981786;28;20755;-73
2023/01/13 03:20:53;;;;;;;15.85;3.05;;;;;;;5.60;100.00;99304.56;4971303;28;20053;-74
2023/01/13 03:23:30;;;;;;;13.23;2.85;;;;;;;5.77;100.00;99315.97;4965980;28;20496;-73
2023/01/13 03:26:18;;;;;;;14.93;2.83;;;;;;;5.89;100.00;99325.22;4981793;28;20094;-74
2023/01/13 03:28:51;;;;;;;14.52;2.47;;;;;;;6.11;100.00;99328.22;4982034;28;20066;-73
2023/01/13 03:31:23;;;;;;;14.02;2.35;;;;;;;6.11;100.00;99320.25;4965447;28;20039;-74
2023/01/13 03:34:08;;;;;;;20.08;2.85;;;;;;;6.17;100.00;99322.25;4981844;28;20050;-73
2023/01/13 03:36:39;;;;;;;12.25;1.63;;;;;;;6.15;100.00;99324.22;4979063;28;20411;-74
2023/01/13 03:39:11;;;;;;;22.20;3.75;;;;;;;6.20;100.00;99321.91;4966092;28;20448;-74
2023/01/13 03:41:58;;;;;;;15.30;2.88;;;;;;;6.20;100.00;99316.59;4965170;28;20481;-74
2023/01/13 03:44:45;;;;;;;16.40;2.95;;;;;;;6.24;100.00;99311.81;4963110;28;20053;-74
2023/01/13 03:47:19;;;;;;;13.85;3.00;;;;;;;6.20;100.00;99316.59;4960180;28;20111;-74
2023/01/13 03:50:04;;;;;;;16.05;3.85;;;;;;;6.24;100.00;99307.31;4967382;28;20039;-74
2023/01/13 03:52:44;;;;;;;19.58;3.63;;;;;;;6.22;100.00;99305.84;4967200;28;20023;-73
2023/01/13 03:55:17;;;;;;;15.10;3.25;;;;;;;6.26;100.00;99286.78;4961675;28;20480;-73
2023/01/13 03:58:00;;;;;;;18.60;4.78;;;;;;;6.16;100.00;99282.66;4985043;28;20093;-73
2023/01/13 04:00:32;;;;;;;26.00;5.03;;;;;;;6.20;100.00;99278.69;4964524;28;20480;-74
2023/01/13 04:03:11;;;;;;;30.00;5.28;;;;;;;6.14;100.00;99274.91;4970007;28;20984;-72
2023/01/13 04:05:42;;;;;;;23.15;3.83;;;;;;;6.10;100.00;99268.28;4984632;28;20050;-73
2023/01/13 04:08:24;;;;;;;20.30;3.42;;;;;;;6.13;100.00;99273.22;4969906;28;20023;-74
2023/01/13 04:10:57;;;;;;;21.52;3.22;;;;;;;6.12;100.00;99259.16;4962721;28;20488;-73
2023/01/13 04:13:27;;;;;;;30.02;6.97;;;;;;;6.10;100.00;99241.78;4964487;28;20201;-73
2023/01/13 04:15:53;;;;;;;32.75;5.45;;;;;;;6.08;100.00;99231.34;4968335;28;20312;-73
2023/01/13 04:18:23;;;;;;;29.50;5.65;;;;;;;6.14;100.00;99224.53;4969914;28;20050;-72
2023/01/13 04:20:50;;;;;;;22.92;5.10;;;;;;;6.10;100.00;99226.69;5005622;23;20713;-77
2023/01/13 04:23:17;;;;;;;28.75;6.78;;;;;;;6.11;100.00;99206.31;4992743;28;20181;-78
2023/01/13 04:25:43;;;;;;;27.33;4.43;;;;;;;6.08;100.00;99196.06;4992398;28;20626;-77
2023/01/13 04:28:10;;;;;;;20.80;4.20;;;;;;;5.99;100.00;99183.84;4992913;28;20030;-77
2023/01/13 04:30:37;;;;;;;17.50;4.28;;;;;;;6.03;100.00;99182.53;4992322;28;20042;-77
2023/01/13 04:33:04;;;;;;;26.63;4.28;;;;;;;5.92;100.00;99160.69;4975995;28;20026;-77
2023/01/13 04:35:30;;;;;;;31.27;6.47;;;;;;;5.98;100.00;99163.66;5009743;28;20084;-78
2023/01/13 04:37:55;;;;;;;23.73;4.63;;;;;;;6.09;100.00;99142.09;4976390;28;20116;-78
2023/01/13 04:40:21;;;;;;;18.23;4.23;;;;;;;6.01;100.00;99116.44;4992010;28;20037;-76
2023/01/13 04:42:46;;;;;;;26.58;4.47;;;;;;;5.92;100.00;99112.16;4992138;28;20285;-77
2023/01/13 04:45:12;;;;;;;29.60;6.80;;;;;;;5.91;100.00;99119.28;4992348;28;20175;-77
2023/01/13 04:47:38;;;;;;;23.13;3.80;;;;;;;5.90;100.00;99099.09;4976594;28;20033;-77
2023/01/13 04:50:04;;;;;;;31.92;5.05;;;;;;;5.90;100.00;99099.09;4975914;28;20045;-78
2023/01/13 04:52:30;;;;;;;27.08;6.15;;;;;;;5.87;100.00;99085.38;4975698;28;20494;-77
2023/01/13 04:54:55;;;;;;;32.73;5.63;;;;;;;5.86;100.00;99071.31;4975269;28;20046;-77
2023/01/13 04:57:20;;;;;;;34.27;5.50;;;;;;;5.80;100.00;99065.88;4992142;28;20033;-76
2023/01/13 04:59:46;;;;;;;27.63;4.73;;;;;;;5.79;100.00;99078.28;4991961;28;20040;-77
2023/01/13 05:02:18;;;;;;;25.47;4.80;;;;;;;5.80;100.00;99069.34;4991639;28;20034;-77
2023/01/13 05:04:47;;;;;;;36.38;5.85;;;;;;;5.87;100.00;99069.47;4990608;28;20037;-77
2023/01/13 05:07:14;;;;;;;29.15;4.97;;;;;;;5.90;100.00;99054.06;4971210;28;20033;-77
2023/01/13 05:09:39;;;;;;;34.30;5.30;;;;;;;5.79;100.00;99025.31;5006483;28;20049;-77
2023/01/13 05:17:35;;;;;;;47.28;6.45;;;;;;;5.77;100.00;99023.84;5008163;28;20495;-77
2023/01/13 05:20:01;;;;;;;45.13;7.50;;;;;;;5.77;100.00;99018.56;4975050;28;20033;-79
2023/01/13 05:25:20;;;;;;;25.15;4.40;;;;;;;5.75;100.00;99031.97;4990912;28;20709;-78
2023/01/13 05:27:46;;;;;;;21.17;5.45;;;;;;;5.64;100.00;99019.94;4974408;28;20570;-77
2023/01/13 05:30:11;;;;;;;27.30;4.30;;;;;;;5.69;100.00;99022.06;4990746;28;20105;-77
2023/01/13 05:32:37;;;;;;;33.60;4.68;;;;;;;5.71;100.00;99033.28;4974144;28;20498;-77
2023/01/13 05:35:03;;;;;;;33.23;4.97;;;;;;;5.65;100.00;99029.53;4974203;28;20209;-77
2023/01/13 05:37:28;;;;;;;25.25;4.70;;;;;;;5.64;100.00;99034.97;4990534;28;20429;-77
2023/01/13 05:45:22;;;;;;;24.15;4.40;;;;;;;5.65;100.00;99031.34;4990410;28;20025;-77
2023/01/13 05:47:47;;;;;;;25.88;5.20;;;;;;;5.55;100.00;99041.31;5007548;28;20060;-77
2023/01/13 05:50:12;;;;;;;30.55;5.22;;;;;;;5.64;100.00;99059.66;5007508;28;20037;-78
2023/01/13 05:52:38;;;;;;;23.53;5.60;;;;;;;5.63;100.00;99062.47;4973776;28;20088;-78
2023/01/13 05:55:03;;;;;;;33.27;6.20;;;;;;;5.65;100.00;99073.72;4989573;28;20045;-77
2023/01/13 05:57:29;;;;;;;23.52;4.65;;;;;;;5.67;100.00;99074.38;4990039;28;20120;-77
2023/01/13 05:59:54;;;;;;;21.23;4.00;;;;;;;5.71;100.00;99075.66;4973963;28;20053;-77
2023/01/13 06:02:20;;;;;;;29.23;5.57;;;;;;;5.69;100.00;99072.38;4989752;28;20026;-76
2023/01/13 06:04:45;;;;;;;31.57;6.17;;;;;;;5.72;100.00;99077.31;4973794;28;20057;-76
2023/01/13 06:07:11;;;;;;;22.37;4.60;;;;;;;5.75;100.00;99079.63;5007383;28;20042;-76
2023/01/13 06:09:36;;;;;;;27.70;6.93;;;;;;;5.73;100.00;99078.97;4973581;28;20030;-75
2023/01/13 06:12:02;;;;;;;21.77;5.63;;;;;;;5.71;100.00;99067.72;4989549;28;20053;-76
2023/01/13 06:14:38;;;;;;;21.43;6.17;;;;;;;5.63;100.00;99059.81;4989862;28;20391;-76
2023/01/13 06:17:15;;;;;;;31.85;6.03;;;;;;;5.76;100.00;99088.38;4973217;28;20630;-75
2023/01/13 06:19:41;;;;;;;29.35;5.50;;;;;;;5.73;100.00;99092.19;4989436;28;20034;-76
2023/01/13 06:22:14;;;;;;;26.45;6.22;;;;;;;5.84;100.00;99113.03;4973149;28;20018;-76
2023/01/13 06:24:39;;;;;;;26.52;4.85;;;;;;;5.79;100.00;99107.41;4973237;28;20076;-75
2023/01/13 06:27:06;;;;;;;29.63;4.97;;;;;;;5.76;100.00;99117.50;4989487;28;20120;-76
2023/01/13 06:29:32;;;;;;;28.83;4.35;;;;;;;5.71;100.00;99125.97;4973814;28;20269;-75
2023/01/13 06:32:01;;;;;;;32.92;5.70;;;;;;;5.64;100.00;99138.25;4989613;28;20026;-75
2023/01/13 06:34:26;;;;;;;14.80;4.03;;;;;;;5.70;100.00;99148.97;4988433;28;20030;-75
2023/01/13 06:36:53;;;;;;;38.08;6.80;;;;;;;5.71;100.00;99158.59;4988909;28;20472;-74
2023/01/13 06:39:23;;;;;;;38.75;5.55;;;;;;;5.73;100.00;99139.88;5006415;28;20037;-75
2023/01/13 06:44:53;;;;;;;26.17;4.20;;;;;;;5.76;100.00;99113.06;4945369;29;20412;-76
2023/01/13 06:47:21;;;;;;;30.47;6.57;;;;;;;5.76;100.00;99106.91;4976282;28;20030;-76
2023/01/13 06:49:46;;;;;;;26.58;5.45;;;;;;;5.79;100.00;99090.72;5006462;28;20037;-75
2023/01/13 06:52:11;;;;;;;36.33;5.60;;;;;;;5.74;100.00;99082.47;4988506;28;20030;-75
2023/01/13 06:54:37;;;;;;;25.77;5.07;;;;;;;5.76;100.00;99081.28;4989126;28;20030;-74
2023/01/13 06:57:02;;;;;;;26.83;6.17;;;;;;;5.83;100.00;99076.94;5006438;28;20852;-75
2023/01/13 06:59:28;;;;;;;33.80;5.95;;;;;;;5.83;100.00;99070.81;4989355;28;20430;-75
2023/01/13 07:01:53;;;;;;;20.70;4.30;;;;;;;5.79;100.00;99072.16;4988609;28;20479;-76
2023/01/13 07:04:18;;;;;;;20.83;4.33;;;;;;;5.83;100.00;99063.72;4988998;28;20064;-75
2023/01/13 07:06:44;;;;;;;25.03;5.80;;;;;;;5.81;100.00;99063.06;4986436;28;20526;-75
2023/01/13 07:09:09;;;;;;;47.50;7.23;;;;;;;5.81;100.00;99065.69;4970653;28;20351;-75
2023/01/13 07:11:34;;;;;;;29.10;5.57;;;;;;;5.71;100.00;99051.81;4976668;28;20122;-75
2023/01/13 07:16:44;;;;;;;21.85;5.00;;;;;;;5.84;100.00;99024.81;4992291;28;20030;-75
2023/01/13 07:19:11;;;;;;;23.15;4.70;;;;;;;5.83;100.00;99029.28;4964189;28;20510;-75
2023/01/13 07:21:36;;;;;;;19.17;4.60;;;;;;;5.87;100.00;99027.91;5005656;28;20121;-76
2023/01/13 07:24:02;;;;;;;27.57;5.70;;;;;;;5.85;100.00;99024.63;4988821;28;20113;-76
2023/01/13 07:26:27;;;;;;;26.00;5.20;;;;;;;5.82;100.00;99019.66;5006107;28;20292;-76
2023/01/13 07:28:52;;;;;;;28.30;5.40;;;;;;;5.86;100.00;99036.88;5006981;28;20081;-75
2023/01/13 07:31:22;;;;;;;24.03;4.70;;;;;;;5.85;100.00;99016.69;4975432;28;20029;-76
2023/01/13 07:33:47;;;;;;;22.42;5.00;;;;;;;5.88;100.00;99003.09;4992209;28;20124;-75
2023/01/13 07:36:13;;;;;;;28.20;5.00;;;;;;;5.84;100.00;98987.72;4976057;28;20022;-75
2023/01/13 07:38:39;;;;;;;30.88;5.85;;;;;;;5.80;100.00;98974.00;5009787;28;20041;-75
2023/01/13 07:43:50;;;;;;;32.50;5.43;;;;;;;5.83;100.00;98959.56;5004528;28;20051;-75
2023/01/13 07:46:17;;;;;;;38.40;4.63;;;;;;;5.85;100.00;98937.25;4992034;28;20261;-75
2023/01/13 07:48:43;;;;;;;24.40;5.63;;;;;;;5.83;100.00;98925.16;4999127;28;20691;-75
2023/01/13 07:51:10;;;;;;;18.63;4.50;;;;;;;5.69;100.00;98913.50;4991819;28;20124;-76
2023/01/13 07:53:37;;;;;;;28.73;3.88;;;;;;;5.84;100.00;98922.31;4992326;28;20669;-74
2023/01/13 07:56:03;;;;;;;;;;;;;;;5.80;100.00;98913.09;5008335;28;20037;-75
2023/01/13 07:58:29;;;;;;;23.20;5.30;;;;;;;5.71;100.00;98907.03;4988557;28;19913;-75
2023/01/13 08:00:56;;;;;;;37.47;4.93;;;;;;;5.72;100.00;98905.22;4991896;28;20025;-75
2023/01/13 08:03:22;;;;;;;23.17;4.50;;;;;;;5.72;100.00;98913.97;4988176;28;20026;-74
2023/01/13 08:05:47;;;;;;;19.58;4.95;;;;;;;5.71;100.00;98917.63;4989835;28;20612;-75
2023/01/13 08:08:13;;;;;;;36.67;6.13;;;;;;;5.76;100.00;98933.00;4992233;28;20053;-75
2023/01/13 08:10:39;;;;;;;27.50;5.40;;;;;;;5.74;100.00;98913.81;5003959;28;20094;-75
2023/01/13 08:13:22;;;;;;;28.58;5.55;;;;;;;5.79;100.00;98914.09;4975759;28;20045;-75
2023/01/13 08:15:49;;;;;;;24.35;4.88;;;;;;;5.81;100.00;98904.16;4991676;28;20827;-76
2023/01/13 08:18:19;;;;;;;23.50;5.13;;;;;;;5.93;100.00;98913.31;5009355;28;20490;-75
2023/01/13 08:20:44;;;;;;;26.33;5.47;;;;;;;6.02;100.00;98906.19;4980726;28;20026;-75
2023/01/13 08:23:10;;;;;;;22.00;4.70;;;;;;;6.09;100.00;98901.81;5009239;28;20032;-74
2023/01/13 08:25:35;;;;;;;28.50;5.32;;;;;;;6.10;100.00;98876.13;4970433;28;20514;-74
2023/01/13 08:28:00;;;;;;;34.50;4.90;;;;;;;6.15;100.00;98857.88;4975567;28;20117;-74
2023/01/13 08:30:26;;;;;;;20.30;5.30;;;;;;;6.13;100.00;98852.75;5008633;28;20029;-75
2023/01/13 08:32:52;;;;;;;30.08;5.88;;;;;;;6.13;100.00;98850.13;4975337;28;20487;-75
2023/01/13 08:35:18;;;;;;;26.38;5.60;;;;;;;6.12;100.00;98834.38;5008738;28;20126;-74
2023/01/13 08:37:45;;;;;;;21.58;4.80;;;;;;;6.18;100.00;98836.34;4974843;28;20557;-74
2023/01/13 08:40:11;;;;;;;26.38;6.15;;;;;;;6.22;100.00;98818.22;4991068;28;20402;-75
2023/01/13 08:42:37;;;;;;;19.35;3.95;;;;;;;6.26;100.00;98819.50;4990765;28;20060;-74
2023/01/13 08:45:03;;;;;;;21.63;4.73;;;;;;;6.28;100.00;98802.44;5009258;28;20073;-76
2023/01/13 08:47:29;;;;;;;31.98;6.15;;;;;;;6.28;100.00;98788.34;5008595;28;20022;-75
2023/01/13 08:49:54;;;;;;;18.73;5.23;;;;;;;6.31;100.00;98777.38;4991121;28;20038;-75
2023/01/13 08:52:20;;;;;;;27.17;4.50;;;;;;;6.32;100.00;98752.50;4974288;28;20346;-75
2023/01/13 08:54:46;;;;;;;28.20;4.55;;;;;;;6.30;100.00;98743.94;4990939;28;20030;-75
2023/01/13 08:57:11;;;;;;;28.77;4.93;;;;;;;6.32;100.00;98731.31;4990769;28;20400;-75
2023/01/13 08:59:37;;;;;;;24.95;4.65;;;;;;;6.32;100.00;98736.59;4990584;28;20017;-76
2023/01/13 09:02:11;;;;;;;18.70;4.50;;;;;;;6.31;100.00;98721.72;4990182;28;20642;-74
2023/01/13 09:04:36;;;;;;;18.70;4.18;;;;;;;6.33;100.00;98712.59;4990626;28;20112;-76
2023/01/13 09:07:02;;;;;;;20.03;5.30;;;;;;;6.43;100.00;98707.00;5007664;28;20160;-75
2023/01/13 09:09:27;;;;;;;30.23;6.07;;;;;;;6.69;100.00;98722.38;4974791;28;20083;-75
2023/01/13 09:14:50;;;;;;;32.38;5.55;;;;;;;6.45;100.00;98661.75;4978900;28;20156;-74
2023/01/13 09:17:17;;;;;;;29.67;6.15;;;;;;;6.44;100.00;98682.13;5007671;28;20109;-75
2023/01/13 09:19:43;;;;;;;18.80;4.43;;;;;;;6.33;100.00;98696.69;5007537;28;20120;-76
2023/01/13 09:22:14;;;;;;;50.40;10.60;;;;;;;6.28;100.00;98746.78;4989881;28;20060;-74
2023/01/13 09:24:40;;;;;;;22.73;4.95;;;;;;;6.30;100.00;98807.56;5008308;28;20499;-78
2023/01/13 09:27:05;;;;;;;31.07;6.30;;;;;;;6.35;100.00;98805.19;5007933;28;20025;-75
2023/01/13 09:29:30;;;;;;;19.60;4.43;;;;;;;6.34;100.00;98816.75;5008408;28;20112;-77
2023/01/13 09:31:56;;;;;;;22.00;4.47;;;;;;;6.40;100.00;98801.97;4970366;28;20142;-76
2023/01/13 09:37:07;;;;;;;21.67;4.97;;;;;;;6.58;100.00;98749.41;4983143;28;20041;-77
2023/01/13 09:39:34;;;;;;;28.05;6.20;;;;;;;6.59;100.00;98697.19;4974157;28;20017;-76
2023/01/13 09:45:07;;;;;;;18.40;3.88;;;;;;;6.68;100.00;98641.19;4989925;28;20037;-77
2023/01/13 09:47:44;;;;;;;15.88;4.50;;;;;;;6.68;100.00;98627.94;5007445;28;20049;-75
2023/01/13 09:50:12;;;;;;;28.92;5.60;;;;;;;6.74;100.00;98616.59;4985174;28;20058;-75
2023/01/13 09:52:39;;;;;;;19.85;4.22;;;;;;;6.82;100.00;98557.28;4981712;28;20021;-75
2023/01/13 09:55:10;;;;;;;19.50;4.78;;;;;;;6.82;100.00;98508.72;4989761;28;20030;-74
2023/01/13 09:57:38;;;;;;;17.80;3.60;;;;;;;6.79;100.00;98472.78;4989750;28;20034;-75
2023/01/13 10:00:24;;;;;;;22.00;4.55;;;;;;;6.80;100.00;98470.97;4989774;28;20026;-75
2023/01/13 10:03:29;;;;;;;18.30;4.47;;;;;;;6.85;100.00;98495.88;4989785;28;20034;-75
2023/01/13 10:05:57;;;;;;;16.13;3.45;;;;;;;6.89;100.00;98491.00;4888963;29;20079;-75
2023/01/13 10:08:27;;;;;;;15.05;3.90;;;;;;;6.93;100.00;98457.75;4857929;29;20166;-77
2023/01/13 10:10:58;;;;;;;20.45;3.88;;;;;;;7.00;100.00;98471.06;4932195;28;20042;-75
2023/01/13 10:13:29;;;;;;;14.02;3.03;;;;;;;7.12;100.00;98459.72;4989580;28;20042;-75
2023/01/13 10:16:02;;;;;;;13.18;3.67;;;;;;;7.03;100.00;98421.09;4989275;28;20029;-75
2023/01/13 10:18:43;;;;;;;18.50;3.65;;;;;;;7.03;100.00;98421.09;4973370;28;20030;-78
2023/01/13 10:21:38;;;;;;;16.10;3.60;;;;;;;6.98;100.00;98415.56;5022293;23;20042;-91
2023/01/13 10:24:24;;;;;;;36.10;6.75;;;;;;;6.91;100.00;98406.75;5035799;28;20014;-92
2023/01/13 10:27:16;;;;;;;20.67;4.35;;;;;;;6.83;100.00;98502.38;5011230;28;20069;-92
2023/01/13 10:29:41;;;;;;;19.02;3.33;;;;;;;6.71;100.00;98528.63;5017358;28;20216;-91
2023/01/13 10:32:07;;;;;;;16.27;2.93;;;;;;;6.75;100.00;98582.91;4995559;28;20040;-90
2023/01/13 10:34:46;;;;;;;19.85;4.20;;;;;;;6.79;100.00;98583.34;4998704;28;20770;-91
2023/01/13 10:37:20;;;;;;;17.67;3.22;;;;;;;6.82;100.00;98570.53;4994364;28;20041;-90
2023/01/13 10:39:48;;;;;;;23.42;4.30;;;;;;;6.73;100.00;98580.44;5010488;28;20041;-91
2023/01/13 10:42:20;;;;;;;21.45;4.55;;;;;;;6.64;100.00;98602.81;4992901;28;20096;-92
2023/01/13 10:45:04;;;;;;;13.30;3.47;;;;;;;6.65;100.00;98630.13;4995087;28;20041;-91
2023/01/13 10:47:33;;;;;;;18.33;4.90;;;;;;;6.66;100.00;98680.34;4996866;28;20482;-90
2023/01/13 10:50:05;;;;;;;16.73;3.83;;;;;;;6.65;100.00;98688.47;5006023;28;20038;-91
2023/01/13 10:52:35;;;;;;;9.82;2.65;;;;;;;6.71;100.00;98675.28;4993387;28;20054;-91
2023/01/13 10:55:03;;;;;;;17.85;3.30;;;;;;;6.79;100.00;98617.81;4995046;28;20065;-88
2023/01/13 10:57:28;;;;;;;12.90;2.38;;;;;;;6.76;100.00;98608.41;5015205;28;20486;-91
2023/01/13 10:59:55;;;;;;;12.53;2.50;;;;;;;6.78;100.00;98579.88;5000536;28;20049;-90
2023/01/13 11:02:31;;;;;;;19.30;3.33;;;;;;;6.70;100.00;98578.19;5001606;28;20352;-90
2023/01/13 11:05:01;;;;;;;12.90;1.88;;;;;;;6.62;100.00;98627.88;5015618;28;20038;-88
2023/01/13 11:07:37;;;;;;;10.80;2.05;;;;;;;6.42;100.00;98665.59;5025145;28;20037;-89
2023/01/13 11:10:23;;;;;;;10.73;4.47;;;;;;;6.45;100.00;98751.88;4994191;28;20913;-89
2023/01/13 11:13:02;;;;;;;12.52;2.53;;;;;;;6.43;100.00;98823.63;4987529;28;20099;-90
2023/01/13 11:15:46;;;;;;;14.90;2.45;;;;;;;6.53;100.00;98871.91;4995947;28;20034;-89
2023/01/13 11:18:29;;;;;;;14.35;3.50;;;;;;;6.48;100.00;98878.75;5014956;28;20060;-88
2023/01/13 11:20:57;;;;;;;11.85;2.53;;;;;;;6.51;100.00;98912.88;4981220;28;20030;-90
2023/01/13 11:23:31;;;;;;;11.75;3.60;;;;;;;6.47;100.00;98940.75;4998389;28;20022;-90
2023/01/13 11:26:03;;;;;;;13.23;2.17;;;;;;;6.34;100.00;98963.38;5006036;28;20034;-89
2023/01/13 11:28:47;;;;;;;15.10;2.83;;;;;;;6.43;100.00;99016.31;5000108;28;20045;-89
2023/01/13 11:31:23;;;;;;;12.02;2.67;;;;;;;6.48;100.00;99046.59;5012974;28;20060;-91
2023/01/13 11:33:55;;;;;;;18.40;4.35;;;;;;;6.48;100.00;99021.91;4997359;28;20046;-89
2023/01/13 11:36:51;;;;;;;15.98;3.55;;;;;;;6.40;100.00;99019.34;4997440;28;20065;-88
2023/01/13 11:39:25;;;;;;;15.77;2.45;;;;;;;6.40;100.00;99014.03;4991294;28;20450;-89
2023/01/13 11:42:23;;;;;;;20.45;3.47;;;;;;;6.33;100.00;99009.44;5012326;28;20161;-88
2023/01/13 11:45:10;;;;;;;14.52;3.17;;;;;;;6.28;100.00;99038.31;5013069;28;20038;-90
2023/01/13 11:47:37;;;;;;;12.48;2.03;;;;;;;6.26;100.00;99050.91;4996240;28;20052;-88
2023/01/13 11:50:03;;;;;;;;;;;;;;;6.36;100.00;99076.34;4997038;28;20018;-88
2023/01/13 11:52:37;;;;;;;22.05;3.25;;;;;;;6.33;100.00;99062.44;4996065;28;20460;-88
2023/01/13 11:55:09;;;;;;;5.95;2.20;;;;;;;6.31;100.00;99066.28;5012873;28;20034;-91
2023/01/13 11:57:51;;;;;;;13.00;2.05;;;;;;;6.41;100.00;99080.09;4993453;28;20030;-89
2023/01/13 12:00:57;;;;;;;5.88;2.17;;;;;;;6.33;100.00;99062.44;4996384;28;20100;-89
2023/01/13 12:03:29;;;;;;;9.75;2.25;;;;;;;6.45;100.00;99075.28;4990445;28;20080;-91
2023/01/13 12:06:07;;;;;;;20.02;3.65;;;;;;;6.43;100.00;99051.59;5012702;28;20029;-89
2023/01/13 12:08:59;;;;;;;9.70;2.33;;;;;;;6.51;100.00;99048.09;4995941;28;20453;-89
2023/01/13 12:14:44;;;;;;;9.23;2.10;;;;;;;6.54;100.00;99015.91;5025301;28;20410;-90
2023/01/13 12:17:24;;;;;;;17.58;3.85;;;;;;;6.54;100.00;99006.13;4996201;28;20095;-89
2023/01/13 12:19:50;;;;;;;11.80;2.10;;;;;;;6.50;100.00;99030.50;4995926;28;20133;-89
2023/01/13 12:22:22;;;;;;;12.02;2.28;;;;;;;6.32;100.00;99060.81;5012478;28;20109;-89
2023/01/13 12:24:54;;;;;;;13.00;2.65;;;;;;;6.27;100.00;99097.59;4996203;28;20830;-90
2023/01/13 12:27:40;;;;;;;14.95;3.90;;;;;;;6.18;100.00;99138.41;4996391;28;20038;-88
2023/01/13 12:30:21;;;;;;;13.63;2.50;;;;;;;6.21;100.00;99153.97;5005659;28;20105;-89
2023/01/13 12:32:47;;;;;;;14.80;3.10;;;;;;;6.19;100.00;99178.97;4996173;28;20063;-89